Time;durP1;ratioP1;P1;durP2;ratioP2;P2;SDS_P1;SDS_P2;PMS_P1;PMS_P2;Temp;Humidity;BMP_temperature;BMP_pressure;BME280_temperature;BME280_humidity;BME280_pressure;Samples;Min_cycle;Max_cycle;Signal;HPM_P1;HPM_P2
2022/02/09 00:01:48;;;;;;;;;;;;;;;;;;5126326;27;19934;-93
2022/02/09 00:04:23;;;;;;;;;;;;;;;;;;5137305;27;20480;-95
2022/02/09 00:07:03;;;;;;;;;;;;;;;;;;5140154;27;19928;-93
2022/02/09 00:09:29;;;;;;;;;;;;;;;;;;5135755;27;19930;-96
2022/02/09 00:12:05;;;;;;;;;;;;;;;;;;5147233;27;19923;-93
2022/02/09 00:14:42;;;;;;;;;;;;;;;;;;5132989;27;19990;-95
2022/02/09 00:17:26;;;;;;;;;;;;;;;;;;5145631;27;19932;-94
2022/02/09 00:20:14;;;;;;;;;;;;;;;;;;5131958;27;19923;-95
2022/02/09 00:23:07;;;;;;;;;;;;;;;;;;5130883;27;19951;-95
2022/02/09 00:26:24;;;;;;;;;;;;;;;;;;5136388;27;19928;-95
2022/02/09 00:28:43;;;;;;;;;;;;;;;;;;5127264;27;20023;-93
2022/02/09 00:37:06;;;;;;;;;;;;;;;;;;5095521;28;19945;-96
2022/02/09 00:39:49;;;;;;;;;;;;;;;;;;5148857;27;19927;-95
2022/02/09 00:42:33;;;;;;;;;;;;;;;;;;5130466;27;19938;-96
2022/02/09 01:33:01;;;;;;;;;;;;;;;;;;5097527;28;20315;-93
2022/02/09 01:40:02;;;;;;;;;;;;;;;;;;5109870;28;20286;-92
2022/02/09 01:56:07;;;;;;;;;;;;;;;;;;5126562;27;20318;-94
2022/02/09 01:58:34;;;;;;;;;;;;;;;;;;5143714;27;19991;-93
2022/02/09 02:03:41;;;;;;;;;;;;;;;;;;5091393;28;19927;-91
2022/02/09 02:06:07;;;;;;;;;;;;;;;;;;5097117;28;19928;-92
2022/02/09 02:08:33;;;;;;;;;;;;;;;;;;5103657;28;19928;-92
2022/02/09 02:11:06;;;;;;;;;;;;;;;;;;5103808;28;19928;-94
2022/02/09 02:13:56;;;;;;;;;;;;;;;;;;5104026;28;19924;-92
2022/02/09 02:16:28;;;;;;;;;;;;;;;;;;5103337;28;19927;-92
2022/02/09 02:18:58;;;;;;;;;;;;;;;;;;5102819;28;20019;-94
2022/02/09 02:21:34;;;;;;;;;;;;;;;;;;5102100;28;19928;-95
2022/02/09 02:26:59;;;;;;;;;;;;;;;;;;5063062;28;19934;-92
2022/02/09 02:46:34;;;;;;;;;;;;;;;;;;5082719;28;19920;-91
2022/02/09 02:57:25;;;;;;;;;;;;;;;;;;5091060;28;19959;-91
2022/02/09 03:11:01;;;;;;;;;;;;;;;;;;5101635;28;19950;-91
2022/02/09 03:13:31;;;;;;;;;;;;;;;;;;5101019;28;19939;-91
2022/02/09 03:16:01;;;;;;;;;;;;;;;;;;5100411;28;19935;-90
2022/02/09 03:21:27;;;;;;;;;;;;;;;;;;5086337;28;19935;-90
2022/02/09 03:23:57;;;;;;;;;;;;;;;;;;5080999;28;20563;-91
2022/02/09 03:26:54;;;;;;;;;;;;;;;;;;5080014;28;19928;-90
2022/02/09 03:43:19;;;;;;;;;;;;;;;;;;5093767;28;20295;-90
2022/02/09 03:48:45;;;;;;;;;;;;;;;;;;5084070;28;20441;-91
2022/02/09 03:54:00;;;;;;;;;;;;;;;;;;5071216;28;20369;-93
2022/02/09 03:56:31;;;;;;;;;;;;;;;;;;5085671;28;19935;-93
2022/02/09 03:58:57;;;;;;;;;;;;;;;;;;5085290;28;19930;-90
2022/02/09 04:01:27;;;;;;;;;;;;;;;;;;5084808;28;19925;-91
2022/02/09 04:03:53;;;;;;;;;;;;;;;;;;5084351;28;19924;-91
2022/02/09 04:06:19;;;;;;;;;;;;;;;;;;5083801;28;19950;-92
2022/02/09 04:08:51;;;;;;;;;;;;;;;;;;5102122;28;19928;-90
2022/02/09 04:11:23;;;;;;;;;;;;;;;;;;5105473;28;19970;-90
2022/02/09 04:13:58;;;;;;;;;;;;;;;;;;5105057;28;20317;-90
2022/02/09 04:16:37;;;;;;;;;;;;;;;;;;5104811;28;20005;-91
2022/02/09 04:19:11;;;;;;;;;;;;;;;;;;5104213;28;19924;-91
2022/02/09 04:38:08;;;;;;;;;;;;;;;;;;5093596;28;19923;-90
2022/02/09 04:43:30;;;;;;;;;;;;;;;;;;5058232;28;19990;-91
2022/02/09 04:46:16;;;;;;;;;;;;;;;;;;5103237;28;19953;-90
2022/02/09 04:49:03;;;;;;;;;;;;;;;;;;5088934;28;19970;-91
2022/02/09 04:51:34;;;;;;;;;;;;;;;;;;5082730;28;19928;-93
2022/02/09 04:54:27;;;;;;;;;;;;;;;;;;5100847;28;19997;-92
2022/02/09 04:56:57;;;;;;;;;;;;;;;;;;5103840;28;19928;-92
2022/02/09 04:59:31;;;;;;;;;;;;;;;;;;5082876;28;20003;-92
2022/02/09 05:02:38;;;;;;;;;;;;;;;;;;5082668;28;20572;-92
2022/02/09 05:05:17;;;;;;;;;;;;;;;;;;5081760;28;19925;-93
2022/02/09 05:19:24;;;;;;;;;;;;;;;;;;5095099;28;19926;-93
2022/02/09 05:21:59;;;;;;;;;;;;;;;;;;5103003;28;19978;-92
2022/02/09 05:24:39;;;;;;;;;;;;;;;;;;5102540;28;19924;-91
2022/02/09 05:27:16;;;;;;;;;;;;;;;;;;5102217;28;19924;-92
2022/02/09 05:29:43;;;;;;;;;;;;;;;;;;5101758;28;20018;-91
2022/02/09 05:32:09;;;;;;;;;;;;;;;;;;5101225;28;19928;-91
2022/02/09 05:34:35;;;;;;;;;;;;;;;;;;5083284;28;19928;-92
2022/02/09 05:37:01;;;;;;;;;;;;;;;;;;5098600;28;19928;-91
2022/02/09 05:39:28;;;;;;;;;;;;;;;;;;5102558;28;19932;-91
2022/02/09 05:41:54;;;;;;;;;;;;;;;;;;5102122;28;19924;-92
2022/02/09 05:44:21;;;;;;;;;;;;;;;;;;5085662;28;19928;-91
2022/02/09 05:49:40;;;;;;;;;;;;;;;;;;5059535;28;19935;-92
2022/02/09 05:52:17;;;;;;;;;;;;;;;;;;5098050;28;19975;-89
2022/02/09 05:55:07;;;;;;;;;;;;;;;;;;5101702;28;19924;-91
2022/02/09 05:57:46;;;;;;;;;;;;;;;;;;5100322;28;19966;-91
2022/02/09 06:00:12;;;;;;;;;;;;;;;;;;5081475;28;19935;-92
2022/02/09 06:02:39;;;;;;;;;;;;;;;;;;5081039;28;19976;-91
2022/02/09 06:05:05;;;;;;;;;;;;;;;;;;5082046;28;19946;-91
2022/02/09 06:07:31;;;;;;;;;;;;;;;;;;5081893;28;19951;-92
2022/02/09 06:09:57;;;;;;;;;;;;;;;;;;5100327;28;19950;-91
2022/02/09 06:12:31;;;;;;;;;;;;;;;;;;5100193;28;19937;-91
2022/02/09 06:15:17;;;;;;;;;;;;;;;;;;5101563;28;19931;-91
2022/02/09 06:20:28;;;;;;;;;;;;;;;;;;5102432;28;19977;-89
2022/02/09 06:22:54;;;;;;;;;;;;;;;;;;5101681;28;19932;-90
2022/02/09 06:25:20;;;;;;;;;;;;;;;;;;5101654;28;19927;-89
2022/02/09 06:27:46;;;;;;;;;;;;;;;;;;5098148;28;19924;-90
2022/02/09 06:30:13;;;;;;;;;;;;;;;;;;5079600;28;19924;-92
2022/02/09 06:32:39;;;;;;;;;;;;;;;;;;5079817;28;19951;-90
2022/02/09 06:35:05;;;;;;;;;;;;;;;;;;5081407;28;19928;-92
2022/02/09 06:37:39;;;;;;;;;;;;;;;;;;5081103;28;19928;-90
2022/02/09 06:40:05;;;;;;;;;;;;;;;;;;5102605;28;19948;-92
2022/02/09 06:42:34;;;;;;;;;;;;;;;;;;5102744;28;19950;-89
2022/02/09 06:45:06;;;;;;;;;;;;;;;;;;5102456;28;19924;-92
2022/02/09 06:47:32;;;;;;;;;;;;;;;;;;5101516;28;19974;-92
2022/02/09 06:50:01;;;;;;;;;;;;;;;;;;5101597;28;19928;-92
2022/02/09 06:52:27;;;;;;;;;;;;;;;;;;5102826;28;19935;-89
2022/02/09 06:55:12;;;;;;;;;;;;;;;;;;5100370;28;19928;-89
2022/02/09 06:57:59;;;;;;;;;;;;;;;;;;5081187;28;19928;-90
2022/02/09 07:00:25;;;;;;;;;;;;;;;;;;5084362;28;19938;-90
2022/02/09 07:02:51;;;;;;;;;;;;;;;;;;5100621;28;19924;-90
2022/02/09 07:05:18;;;;;;;;;;;;;;;;;;5098721;28;19924;-96
2022/02/09 07:07:44;;;;;;;;;;;;;;;;;;5086349;28;19942;-91
2022/02/09 07:10:10;;;;;;;;;;;;;;;;;;5104474;28;19985;-90
2022/02/09 07:12:38;;;;;;;;;;;;;;;;;;5106341;28;19928;-91
2022/02/09 07:15:04;;;;;;;;;;;;;;;;;;5105017;28;19923;-91
2022/02/09 07:17:31;;;;;;;;;;;;;;;;;;5106115;28;19935;-94
2022/02/09 07:20:08;;;;;;;;;;;;;;;;;;5095045;28;19928;-96
2022/02/09 07:22:37;;;;;;;;;;;;;;;;;;5100419;28;19924;-90
2022/02/09 07:25:08;;;;;;;;;;;;;;;;;;5102454;28;19924;-91
2022/02/09 07:27:47;;;;;;;;;;;;;;;;;;5102037;28;19942;-91
2022/02/09 07:30:13;;;;;;;;;;;;;;;;;;5086862;28;19935;-90
2022/02/09 07:32:39;;;;;;;;;;;;;;;;;;5085404;28;19932;-90
2022/02/09 07:35:05;;;;;;;;;;;;;;;;;;5087555;28;19983;-91
2022/02/09 07:37:32;;;;;;;;;;;;;;;;;;5084733;28;19924;-90
2022/02/09 07:39:59;;;;;;;;;;;;;;;;;;5101121;28;19981;-91
2022/02/09 07:42:28;;;;;;;;;;;;;;;;;;5103134;28;20331;-90
2022/02/09 07:45:04;;;;;;;;;;;;;;;;;;5099587;28;20459;-90
2022/02/09 07:53:06;;;;;;;;;;;;;;;;;;5093879;28;19947;-92
2022/02/09 07:55:33;;;;;;;;;;;;;;;;;;5098126;28;20234;-90
2022/02/09 07:58:00;;;;;;;;;;;;;;;;;;5096912;28;20824;-90
2022/02/09 08:00:27;;;;;;;;;;;;;;;;;;5101278;28;19928;-96
2022/02/09 08:02:53;;;;;;;;;;;;;;;;;;5100416;28;19932;-89
2022/02/09 08:05:19;;;;;;;;;;;;;;;;;;5083943;28;19951;-90
2022/02/09 08:07:46;;;;;;;;;;;;;;;;;;5084806;28;19925;-89
2022/02/09 08:10:19;;;;;;;;;;;;;;;;;;5100723;28;19950;-92
2022/02/09 08:24:06;;;;;;;;;;;;;;;;;;5103373;28;19943;-89
2022/02/09 08:29:28;;;;;;;;;;;;;;;;;;5054165;28;19931;-90
2022/02/09 08:34:53;;;;;;;;;;;;;;;;;;5104079;28;19931;-89
2022/02/09 08:37:19;;;;;;;;;;;;;;;;;;5090006;28;19924;-88
2022/02/09 08:39:47;;;;;;;;;;;;;;;;;;5095004;28;19946;-89
2022/02/09 08:42:13;;;;;;;;;;;;;;;;;;5105031;28;19924;-90
2022/02/09 08:44:40;;;;;;;;;;;;;;;;;;5104032;28;19977;-90
2022/02/09 08:47:06;;;;;;;;;;;;;;;;;;5099707;28;19928;-89
2022/02/09 08:49:32;;;;;;;;;;;;;;;;;;5101813;28;19954;-92
2022/02/09 08:51:58;;;;;;;;;;;;;;;;;;5100322;28;19924;-96
2022/02/09 08:54:25;;;;;;;;;;;;;;;;;;5095918;28;19928;-93
2022/02/09 08:56:53;;;;;;;;;;;;;;;;;;5084445;28;19935;-91
2022/02/09 08:59:23;;;;;;;;;;;;;;;;;;5090874;28;19993;-94
2022/02/09 09:01:56;;;;;;;;;;;;;;;;;;5105302;28;19992;-90
2022/02/09 09:04:25;;;;;;;;;;;;;;;;;;5103893;28;19927;-94
2022/02/09 09:06:55;;;;;;;;;;;;;;;;;;5106682;28;20338;-93
2022/02/09 09:09:37;;;;;;;;;;;;;;;;;;5104784;28;19924;-96
2022/02/09 09:17:44;;;;;;;;;;;;;;;;;;5085715;28;19956;-91
2022/02/09 09:59:02;;;;;;;;;;;;;;;;;;5083821;28;19946;-95
2022/02/09 10:01:38;;;;;;;;;;;;;;;;;;5083506;28;19931;-93
2022/02/09 10:04:15;;;;;;;;;;;;;;;;;;5083672;28;19920;-94
2022/02/09 10:34:09;;;;;;;;;;;;;;;;;;5105568;28;19939;-93
2022/02/09 10:36:42;;;;;;;;;;;;;;;;;;5085336;28;19925;-96
2022/02/09 10:39:13;;;;;;;;;;;;;;;;;;5083251;28;20015;-93
2022/02/09 10:41:43;;;;;;;;;;;;;;;;;;5101821;28;19939;-95
2022/02/09 10:44:10;;;;;;;;;;;;;;;;;;5104886;28;19975;-96
2022/02/09 10:46:38;;;;;;;;;;;;;;;;;;5104842;28;19952;-94
2022/02/09 10:49:05;;;;;;;;;;;;;;;;;;5101710;28;19928;-91
2022/02/09 10:51:38;;;;;;;;;;;;;;;;;;5090736;28;19929;-95
2022/02/09 10:54:04;;;;;;;;;;;;;;;;;;5085290;28;20350;-95
2022/02/09 10:56:30;;;;;;;;;;;;;;;;;;5099413;28;20002;-92
2022/02/09 10:58:57;;;;;;;;;;;;;;;;;;5103422;28;20019;-91
2022/02/09 11:01:24;;;;;;;;;;;;;;;;;;5103861;28;19928;-95
2022/02/09 11:03:51;;;;;;;;;;;;;;;;;;5104830;28;20167;-93
2022/02/09 11:06:17;;;;;;;;;;;;;;;;;;5088187;28;19925;-94
2022/02/09 11:08:45;;;;;;;;;;;;;;;;;;5083997;28;19924;-96
2022/02/09 11:11:11;;;;;;;;;;;;;;;;;;5098491;28;19950;-93
2022/02/09 11:13:37;;;;;;;;;;;;;;;;;;5104016;28;19950;-94
2022/02/09 11:16:04;;;;;;;;;;;;;;;;;;5102918;28;19928;-96
2022/02/09 11:18:30;;;;;;;;;;;;;;;;;;5102960;28;20388;-96
2022/02/09 11:20:58;;;;;;;;;;;;;;;;;;5094564;28;20384;-96
2022/02/09 11:23:26;;;;;;;;;;;;;;;;;;5105633;28;19924;-94
2022/02/09 11:25:55;;;;;;;;;;;;;;;;;;5091867;28;19924;-92
2022/02/09 11:28:25;;;;;;;;;;;;;;;;;;5087681;28;19970;-91
2022/02/09 11:30:54;;;;;;;;;;;;;;;;;;5110555;28;20377;-95
2022/02/09 11:33:25;;;;;;;;;;;;;;;;;;5105552;28;19932;-94
2022/02/09 11:35:56;;;;;;;;;;;;;;;;;;5105545;28;19924;-96
2022/02/09 11:38:26;;;;;;;;;;;;;;;;;;5098081;28;19931;-96
2022/02/09 11:41:10;;;;;;;;;;;;;;;;;;5102016;28;19928;-96
2022/02/09 11:43:41;;;;;;;;;;;;;;;;;;5067196;28;19929;-93
2022/02/09 11:46:31;;;;;;;;;;;;;;;;;;5086843;28;19925;-95
2022/02/09 11:49:17;;;;;;;;;;;;;;;;;;5086228;28;19932;-94
2022/02/09 11:51:58;;;;;;;;;;;;;;;;;;5085807;28;19931;-93
2022/02/09 11:54:47;;;;;;;;;;;;;;;;;;5096287;28;19934;-96
2022/02/09 11:57:35;;;;;;;;;;;;;;;;;;5090230;28;19931;-94
2022/02/09 12:00:06;;;;;;;;;;;;;;;;;;5104171;28;20023;-93
2022/02/09 12:10:47;;;;;;;;;;;;;;;;;;5099299;28;19923;-96
2022/02/09 12:13:15;;;;;;;;;;;;;;;;;;5107196;28;19955;-93
2022/02/09 12:18:35;;;;;;;;;;;;;;;;;;5102845;28;19935;-95
2022/02/09 12:21:05;;;;;;;;;;;;;;;;;;5086352;28;19928;-93
2022/02/09 12:23:33;;;;;;;;;;;;;;;;;;5109299;28;19924;-96
2022/02/09 12:26:00;;;;;;;;;;;;;;;;;;5109317;28;20521;-94
2022/02/09 12:28:28;;;;;;;;;;;;;;;;;;5106158;28;19924;-94
2022/02/09 12:30:55;;;;;;;;;;;;;;;;;;5097469;28;20490;-94
2022/02/09 12:33:23;;;;;;;;;;;;;;;;;;5087047;28;20322;-95
2022/02/09 12:35:50;;;;;;;;;;;;;;;;;;5086328;28;19987;-96
2022/02/09 12:38:19;;;;;;;;;;;;;;;;;;5087792;28;19924;-96
2022/02/09 12:40:45;;;;;;;;;;;;;;;;;;5084910;28;19931;-93
2022/02/09 12:43:13;;;;;;;;;;;;;;;;;;5086596;28;19928;-96
2022/02/09 12:45:41;;;;;;;;;;;;;;;;;;5094068;28;19925;-93
2022/02/09 12:48:11;;;;;;;;;;;;;;;;;;5101995;28;19928;-92
2022/02/09 12:50:40;;;;;;;;;;;;;;;;;;5102500;28;19946;-93
2022/02/09 12:53:07;;;;;;;;;;;;;;;;;;5099365;28;20003;-93
2022/02/09 12:55:33;;;;;;;;;;;;;;;;;;5099347;28;19947;-96
2022/02/09 12:58:04;;;;;;;;;;;;;;;;;;5100805;28;19924;-96
2022/02/09 13:00:30;;;;;;;;;;;;;;;;;;5130223;22;19967;-94
2022/02/09 13:02:56;;;;;;;;;;;;;;;;;;5146000;27;19923;-94
2022/02/09 13:05:22;;;;;;;;;;;;;;;;;;5143658;27;19931;-96
2022/02/09 13:07:49;;;;;;;;;;;;;;;;;;5125117;28;19927;-95
2022/02/09 13:10:17;;;;;;;;;;;;;;;;;;5127368;28;19949;-96
2022/02/09 13:12:43;;;;;;;;;;;;;;;;;;5124690;28;20394;-93
2022/02/09 13:15:15;;;;;;;;;;;;;;;;;;5127813;28;19924;-96
2022/02/09 13:17:49;;;;;;;;;;;;;;;;;;5123459;28;19924;-94
2022/02/09 13:23:38;;;;;;;;;;;;;;;;;;5132792;27;2057399;-96
2022/02/09 14:12:45;;;;;;;;;;;;;;;;;;5167151;27;19922;-93
2022/02/09 14:15:52;;;;;;;;;;;;;;;;;;5204857;27;19937;-96
2022/02/09 14:18:46;;;;;;;;;;;;;;;;;;5182190;27;19944;-91
2022/02/09 14:31:38;;;;;;;;;;;;;;;;;;5181100;27;19926;-93
2022/02/09 14:33:28;;;;;;;;;;;;;;;;;;5192560;27;19917;-90
2022/02/09 14:54:35;;;;;;;;;;;;;;;;;;5180092;27;19929;-92
2022/02/09 14:57:06;;;;;;;;;;;;;;;;;;5176876;27;19990;-91
2022/02/09 14:59:48;;;;;;;;;;;;;;;;;;5166958;27;19931;-95
2022/02/09 15:02:20;;;;;;;;;;;;;;;;;;5161912;27;19972;-92
2022/02/09 15:07:47;;;;;;;;;;;;;;;;;;5106579;27;2315456;-94
2022/02/09 15:10:19;;;;;;;;;;;;;;;;;;5181552;27;19923;-96
2022/02/09 15:12:56;;;;;;;;;;;;;;;;;;5186003;27;19987;-96
2022/02/09 15:15:36;;;;;;;;;;;;;;;;;;5185766;27;19930;-94
2022/02/09 15:20:50;;;;;;;;;;;;;;;;;;5190321;27;19927;-95
2022/02/09 15:23:19;;;;;;;;;;;;;;;;;;5184962;27;19923;-94
2022/02/09 15:25:45;;;;;;;;;;;;;;;;;;5166003;27;19992;-94
2022/02/09 15:28:12;;;;;;;;;;;;;;;;;;5176417;27;19923;-90
2022/02/09 15:30:48;;;;;;;;;;;;;;;;;;5179149;27;19933;-94
2022/02/09 15:33:21;;;;;;;;;;;;;;;;;;5183554;27;19923;-95
2022/02/09 15:35:51;;;;;;;;;;;;;;;;;;5177047;27;20035;-90
2022/02/09 15:38:23;;;;;;;;;;;;;;;;;;5180054;27;19966;-94
2022/02/09 15:40:56;;;;;;;;;;;;;;;;;;5181181;27;19990;-96
2022/02/09 15:43:46;;;;;;;;;;;;;;;;;;5177271;27;19927;-94
2022/02/09 15:57:47;;;;;;;;;;;;;;;;;;5181949;27;19968;-95
2022/02/09 16:05:45;;;;;;;;;;;;;;;;;;5184626;27;19932;-96
2022/02/09 16:08:31;;;;;;;;;;;;;;;;;;5180600;27;19952;-94
2022/02/09 16:11:20;;;;;;;;;;;;;;;;;;5181236;27;19923;-96
2022/02/09 16:16:59;;;;;;;;;;;;;;;;;;5179770;27;19995;-93
2022/02/09 16:19:47;;;;;;;;;;;;;;;;;;5165761;27;19944;-92
2022/02/09 16:22:23;;;;;;;;;;;;;;;;;;5164046;27;19930;-89
2022/02/09 16:33:21;;;;;;;;;;;;;;;;;;5180565;27;19925;-90
2022/02/09 16:44:30;;;;;;;;;;;;;;;;;;5117277;28;19935;-90
2022/02/09 16:46:58;;;;;;;;;;;;;;;;;;5154107;27;19995;-90
2022/02/09 16:49:31;;;;;;;;;;;;;;;;;;5182046;27;19933;-90
2022/02/09 16:52:02;;;;;;;;;;;;;;;;;;5167181;27;20748;-91
2022/02/09 16:54:36;;;;;;;;;;;;;;;;;;5180619;27;19923;-90
2022/02/09 16:57:19;;;;;;;;;;;;;;;;;;5181111;27;19923;-90
2022/02/09 17:19:02;;;;;;;;;;;;;;;;;;5168772;27;20039;-90
2022/02/09 17:21:28;;;;;;;;;;;;;;;;;;5167957;27;20332;-91
2022/02/09 17:23:57;;;;;;;;;;;;;;;;;;5175535;27;20131;-91
2022/02/09 17:26:23;;;;;;;;;;;;;;;;;;5176492;27;19926;-90
2022/02/09 17:28:57;;;;;;;;;;;;;;;;;;5170002;27;19927;-90
2022/02/09 17:31:26;;;;;;;;;;;;;;;;;;5158694;27;19927;-89
2022/02/09 17:53:22;;;;;;;;;;;;;;;;;;5157175;27;20501;-88
2022/02/09 17:55:55;;;;;;;;;;;;;;;;;;5165204;27;19957;-89
2022/02/09 17:58:26;;;;;;;;;;;;;;;;;;5164930;27;19931;-89
2022/02/09 18:00:53;;;;;;;;;;;;;;;;;;5164683;27;19927;-88
2022/02/09 18:03:19;;;;;;;;;;;;;;;;;;5164912;27;19927;-88
2022/02/09 18:05:48;;;;;;;;;;;;;;;;;;5159295;27;19927;-88
2022/02/09 18:08:21;;;;;;;;;;;;;;;;;;5150687;27;19927;-89
2022/02/09 18:10:55;;;;;;;;;;;;;;;;;;5161802;27;19927;-89
2022/02/09 18:30:01;;;;;;;;;;;;;;;;;;5162943;27;19923;-89
2022/02/09 18:32:53;;;;;;;;;;;;;;;;;;5162463;27;19954;-89
2022/02/09 18:43:29;;;;;;;;;;;;;;;;;;5162017;27;19933;-91
2022/02/09 18:46:02;;;;;;;;;;;;;;;;;;5162454;27;19935;-90
2022/02/09 18:49:00;;;;;;;;;;;;;;;;;;5162663;27;19930;-91
2022/02/09 18:57:02;;;;;;;;;;;;;;;;;;5164666;27;19918;-89
2022/02/09 18:59:33;;;;;;;;;;;;;;;;;;5164601;27;19927;-91
2022/02/09 19:02:20;;;;;;;;;;;;;;;;;;5158424;27;19923;-90
2022/02/09 19:04:48;;;;;;;;;;;;;;;;;;5164257;27;20007;-90
2022/02/09 19:15:50;;;;;;;;;;;;;;;;;;5162152;27;19957;-91
2022/02/09 19:18:38;;;;;;;;;;;;;;;;;;5161846;27;19994;-91
2022/02/09 19:32:16;;;;;;;;;;;;;;;;;;5159463;27;19936;-90
2022/02/09 19:44:01;;;;;;;;;;;;;;;;;;5164268;27;19940;-93
2022/02/09 19:48:40;;;;;;;;;;;;;;;;;;5162162;27;19931;-91
2022/02/09 19:51:15;;;;;;;;;;;;;;;;;;5159828;27;19938;-91
2022/02/09 19:53:45;;;;;;;;;;;;;;;;;;5153084;27;19926;-91
2022/02/09 19:56:14;;;;;;;;;;;;;;;;;;5151111;27;19928;-91
2022/02/09 19:58:43;;;;;;;;;;;;;;;;;;5155842;27;19978;-90
2022/02/09 20:01:13;;;;;;;;;;;;;;;;;;5162099;27;19927;-91
2022/02/09 20:03:39;;;;;;;;;;;;;;;;;;5163212;27;19945;-91
2022/02/09 20:06:07;;;;;;;;;;;;;;;;;;5155657;27;19929;-91
2022/02/09 20:08:33;;;;;;;;;;;;;;;;;;5146641;27;19937;-91
2022/02/09 20:10:59;;;;;;;;;;;;;;;;;;5162491;27;19923;-91
2022/02/09 20:13:25;;;;;;;;;;;;;;;;;;5155439;27;19952;-91
2022/02/09 20:15:52;;;;;;;;;;;;;;;;;;5160362;27;19923;-91
2022/02/09 20:18:18;;;;;;;;;;;;;;;;;;5160808;27;19923;-92
2022/02/09 20:20:44;;;;;;;;;;;;;;;;;;5163889;27;19948;-92
2022/02/09 20:23:12;;;;;;;;;;;;;;;;;;5160235;27;19927;-92
2022/02/09 20:25:38;;;;;;;;;;;;;;;;;;5154280;27;19934;-92
2022/02/09 20:28:06;;;;;;;;;;;;;;;;;;5162358;27;19934;-91
2022/02/09 20:30:37;;;;;;;;;;;;;;;;;;5162368;27;19923;-92
2022/02/09 20:33:08;;;;;;;;;;;;;;;;;;5140788;28;19955;-91
2022/02/09 20:35:34;;;;;;;;;;;;;;;;;;5159008;27;19942;-91
2022/02/09 20:38:00;;;;;;;;;;;;;;;;;;5142356;27;19924;-90
2022/02/09 20:40:34;;;;;;;;;;;;;;;;;;5161208;27;19926;-90
2022/02/09 20:43:02;;;;;;;;;;;;;;;;;;5163285;27;19981;-90
2022/02/09 20:45:32;;;;;;;;;;;;;;;;;;5159429;27;20008;-92
2022/02/09 20:48:02;;;;;;;;;;;;;;;;;;5142481;28;19924;-91
2022/02/09 20:50:28;;;;;;;;;;;;;;;;;;5158030;27;19927;-91
2022/02/09 20:52:54;;;;;;;;;;;;;;;;;;5141425;27;19927;-91
2022/02/09 20:55:21;;;;;;;;;;;;;;;;;;5157199;27;19927;-88
2022/02/09 20:57:48;;;;;;;;;;;;;;;;;;5161019;27;19931;-89
2022/02/09 21:00:21;;;;;;;;;;;;;;;;;;5162067;27;19935;-89
2022/02/09 21:02:53;;;;;;;;;;;;;;;;;;5151637;27;19924;-90
2022/02/09 21:05:34;;;;;;;;;;;;;;;;;;5157509;27;20435;-91
2022/02/09 21:08:12;;;;;;;;;;;;;;;;;;5141935;27;19984;-91
2022/02/09 21:10:46;;;;;;;;;;;;;;;;;;5160497;27;19927;-92
2022/02/09 21:13:21;;;;;;;;;;;;;;;;;;5164807;27;19923;-94
2022/02/09 21:15:56;;;;;;;;;;;;;;;;;;5165603;27;19981;-93
2022/02/09 21:18:41;;;;;;;;;;;;;;;;;;5165009;27;19923;-92
2022/02/09 21:26:55;;;;;;;;;;;;;;;;;;5163228;27;19927;-91
2022/02/09 21:32:32;;;;;;;;;;;;;;;;;;5165141;27;19922;-90
2022/02/09 21:54:26;;;;;;;;;;;;;;;;;;5108065;27;19929;-93
2022/02/09 21:56:56;;;;;;;;;;;;;;;;;;5165331;27;20405;-93
2022/02/09 22:21:53;;;;;;;;;;;;;;;;;;5165941;27;19941;-90
2022/02/09 22:27:05;;;;;;;;;;;;;;;;;;5113038;27;19945;-90
2022/02/09 22:33:10;;;;;;;;;;;;;;;;;;5129380;27;19934;-90
2022/02/09 22:47:16;;;;;;;;;;;;;;;;;;5156840;27;19965;-91
2022/02/09 22:49:38;;;;;;;;;;;;;;;;;;5156343;27;19927;-90
2022/02/09 22:54:49;;;;;;;;;;;;;;;;;;5160462;27;19925;-91
2022/02/09 22:57:16;;;;;;;;;;;;;;;;;;5160247;27;20487;-91
2022/02/09 22:59:46;;;;;;;;;;;;;;;;;;5164870;27;20005;-91
2022/02/09 23:02:23;;;;;;;;;;;;;;;;;;5164438;27;19970;-91
2022/02/09 23:05:04;;;;;;;;;;;;;;;;;;5164297;27;19944;-91
2022/02/09 23:07:44;;;;;;;;;;;;;;;;;;5144569;27;19927;-91
2022/02/09 23:10:19;;;;;;;;;;;;;;;;;;5151090;27;19923;-91
2022/02/09 23:12:51;;;;;;;;;;;;;;;;;;5164655;27;19927;-93
2022/02/09 23:15:29;;;;;;;;;;;;;;;;;;5164173;27;19923;-93
2022/02/09 23:18:33;;;;;;;;;;;;;;;;;;5163636;27;19930;-92
2022/02/09 23:21:38;;;;;;;;;;;;;;;;;;5163760;27;20451;-92
2022/02/09 23:24:27;;;;;;;;;;;;;;;;;;5164369;27;19923;-90
2022/02/09 23:54:40;;;;;;;;;;;;;;;;;;5143342;27;19926;-91
